sensor_id;sensor_type;location;lat;lon;timestamp;P1;durP1;ratioP1;P2;durP2;ratioP2
79533;SDS011;68982;52.160;6.736;2023-08-12T00:00:39;13.80;;;8.73;;
79533;SDS011;68982;52.160;6.736;2023-08-12T00:03:04;13.57;;;9.02;;
79533;SDS011;68982;52.160;6.736;2023-08-12T00:05:29;13.73;;;8.77;;
79533;SDS011;68982;52.160;6.736;2023-08-12T00:07:55;13.13;;;9.10;;
79533;SDS011;68982;52.160;6.736;2023-08-12T00:10:20;16.70;;;10.05;;
79533;SDS011;68982;52.160;6.736;2023-08-12T00:12:45;15.30;;;9.77;;
79533;SDS011;68982;52.160;6.736;2023-08-12T00:15:11;14.43;;;9.75;;
79533;SDS011;68982;52.160;6.736;2023-08-12T00:17:37;14.75;;;9.80;;
79533;SDS011;68982;52.160;6.736;2023-08-12T00:20:05;17.55;;;10.35;;
79533;SDS011;68982;52.160;6.736;2023-08-12T00:22:33;16.73;;;11.68;;
79533;SDS011;68982;52.160;6.736;2023-08-12T00:24:58;14.55;;;10.93;;
79533;SDS011;68982;52.160;6.736;2023-08-12T00:27:23;15.70;;;10.65;;
79533;SDS011;68982;52.160;6.736;2023-08-12T00:29:49;14.70;;;11.15;;
79533;SDS011;68982;52.160;6.736;2023-08-12T00:32:14;20.17;;;11.65;;
79533;SDS011;68982;52.160;6.736;2023-08-12T00:34:39;20.90;;;11.30;;
79533;SDS011;68982;52.160;6.736;2023-08-12T00:37:05;15.73;;;10.50;;
79533;SDS011;68982;52.160;6.736;2023-08-12T00:39:30;16.30;;;10.70;;
79533;SDS011;68982;52.160;6.736;2023-08-12T00:41:56;16.67;;;10.57;;
79533;SDS011;68982;52.160;6.736;2023-08-12T00:44:21;18.25;;;11.57;;
79533;SDS011;68982;52.160;6.736;2023-08-12T00:46:46;16.80;;;10.82;;
79533;SDS011;68982;52.160;6.736;2023-08-12T00:49:13;16.65;;;11.13;;
79533;SDS011;68982;52.160;6.736;2023-08-12T00:51:39;15.30;;;11.30;;
79533;SDS011;68982;52.160;6.736;2023-08-12T00:54:06;15.88;;;11.15;;
79533;SDS011;68982;52.160;6.736;2023-08-12T00:56:35;15.88;;;11.18;;
79533;SDS011;68982;52.160;6.736;2023-08-12T00:59:02;14.30;;;10.27;;
79533;SDS011;68982;52.160;6.736;2023-08-12T01:01:30;15.45;;;11.25;;
79533;SDS011;68982;52.160;6.736;2023-08-12T01:03:56;17.13;;;11.32;;
79533;SDS011;68982;52.160;6.736;2023-08-12T01:06:22;18.52;;;11.27;;
79533;SDS011;68982;52.160;6.736;2023-08-12T01:08:48;15.82;;;11.68;;
79533;SDS011;68982;52.160;6.736;2023-08-12T01:11:16;15.95;;;12.15;;
79533;SDS011;68982;52.160;6.736;2023-08-12T01:14:08;16.75;;;11.88;;
79533;SDS011;68982;52.160;6.736;2023-08-12T01:16:43;13.25;;;11.23;;
79533;SDS011;68982;52.160;6.736;2023-08-12T01:19:16;15.55;;;11.57;;
79533;SDS011;68982;52.160;6.736;2023-08-12T01:21:59;17.13;;;11.35;;
79533;SDS011;68982;52.160;6.736;2023-08-12T01:24:26;17.35;;;11.70;;
79533;SDS011;68982;52.160;6.736;2023-08-12T01:26:52;15.20;;;11.45;;
79533;SDS011;68982;52.160;6.736;2023-08-12T01:29:17;16.15;;;11.10;;
79533;SDS011;68982;52.160;6.736;2023-08-12T01:31:51;17.17;;;11.55;;
79533;SDS011;68982;52.160;6.736;2023-08-12T01:36:57;14.13;;;10.38;;
79533;SDS011;68982;52.160;6.736;2023-08-12T01:39:24;14.80;;;10.38;;
79533;SDS011;68982;52.160;6.736;2023-08-12T01:41:52;15.75;;;10.82;;
79533;SDS011;68982;52.160;6.736;2023-08-12T01:44:18;17.25;;;11.25;;
79533;SDS011;68982;52.160;6.736;2023-08-12T01:46:44;17.50;;;11.98;;
79533;SDS011;68982;52.160;6.736;2023-08-12T01:49:09;15.32;;;11.38;;
79533;SDS011;68982;52.160;6.736;2023-08-12T01:51:35;17.65;;;11.15;;
79533;SDS011;68982;52.160;6.736;2023-08-12T01:54:00;13.25;;;10.18;;
79533;SDS011;68982;52.160;6.736;2023-08-12T01:56:25;13.85;;;11.18;;
79533;SDS011;68982;52.160;6.736;2023-08-12T01:58:51;15.77;;;11.25;;
79533;SDS011;68982;52.160;6.736;2023-08-12T02:01:16;14.35;;;10.52;;
79533;SDS011;68982;52.160;6.736;2023-08-12T02:03:41;16.23;;;12.07;;
79533;SDS011;68982;52.160;6.736;2023-08-12T02:06:07;14.70;;;10.18;;
79533;SDS011;68982;52.160;6.736;2023-08-12T02:08:32;15.40;;;10.98;;
79533;SDS011;68982;52.160;6.736;2023-08-12T02:10:57;13.57;;;10.77;;
79533;SDS011;68982;52.160;6.736;2023-08-12T02:13:23;15.60;;;10.32;;
79533;SDS011;68982;52.160;6.736;2023-08-12T02:15:48;14.73;;;10.50;;
79533;SDS011;68982;52.160;6.736;2023-08-12T02:18:13;13.90;;;10.65;;
79533;SDS011;68982;52.160;6.736;2023-08-12T02:20:40;12.70;;;10.27;;
79533;SDS011;68982;52.160;6.736;2023-08-12T02:23:06;15.35;;;11.45;;
79533;SDS011;68982;52.160;6.736;2023-08-12T02:25:31;12.38;;;9.77;;
79533;SDS011;68982;52.160;6.736;2023-08-12T02:27:57;15.18;;;10.40;;
79533;SDS011;68982;52.160;6.736;2023-08-12T02:30:22;15.52;;;10.25;;
79533;SDS011;68982;52.160;6.736;2023-08-12T02:32:47;13.48;;;10.15;;
79533;SDS011;68982;52.160;6.736;2023-08-12T02:35:14;13.40;;;9.88;;
79533;SDS011;68982;52.160;6.736;2023-08-12T02:37:40;15.20;;;10.15;;
79533;SDS011;68982;52.160;6.736;2023-08-12T02:40:06;12.43;;;9.88;;
79533;SDS011;68982;52.160;6.736;2023-08-12T02:42:31;12.85;;;9.52;;
79533;SDS011;68982;52.160;6.736;2023-08-12T02:44:57;14.95;;;10.35;;
79533;SDS011;68982;52.160;6.736;2023-08-12T02:47:22;13.27;;;10.15;;
79533;SDS011;68982;52.160;6.736;2023-08-12T02:49:48;11.95;;;10.18;;
79533;SDS011;68982;52.160;6.736;2023-08-12T02:52:13;13.52;;;9.82;;
79533;SDS011;68982;52.160;6.736;2023-08-12T02:54:39;13.52;;;10.02;;
79533;SDS011;68982;52.160;6.736;2023-08-12T02:57:04;12.32;;;9.50;;
79533;SDS011;68982;52.160;6.736;2023-08-12T02:59:30;15.18;;;10.70;;
79533;SDS011;68982;52.160;6.736;2023-08-12T03:01:55;13.52;;;9.98;;
79533;SDS011;68982;52.160;6.736;2023-08-12T03:04:20;11.13;;;9.18;;
79533;SDS011;68982;52.160;6.736;2023-08-12T03:06:47;11.50;;;9.40;;
79533;SDS011;68982;52.160;6.736;2023-08-12T03:09:13;13.35;;;9.82;;
79533;SDS011;68982;52.160;6.736;2023-08-12T03:11:38;12.68;;;9.05;;
79533;SDS011;68982;52.160;6.736;2023-08-12T03:14:04;15.93;;;9.57;;
79533;SDS011;68982;52.160;6.736;2023-08-12T03:16:29;10.80;;;8.88;;
79533;SDS011;68982;52.160;6.736;2023-08-12T03:18:54;12.88;;;9.30;;
79533;SDS011;68982;52.160;6.736;2023-08-12T03:21:20;13.00;;;9.13;;
79533;SDS011;68982;52.160;6.736;2023-08-12T03:23:45;13.15;;;9.45;;
79533;SDS011;68982;52.160;6.736;2023-08-12T03:26:11;12.57;;;10.25;;
79533;SDS011;68982;52.160;6.736;2023-08-12T03:28:36;13.40;;;10.13;;
79533;SDS011;68982;52.160;6.736;2023-08-12T03:31:02;12.43;;;9.30;;
79533;SDS011;68982;52.160;6.736;2023-08-12T03:33:27;11.52;;;9.45;;
79533;SDS011;68982;52.160;6.736;2023-08-12T03:35:52;15.27;;;10.38;;
79533;SDS011;68982;52.160;6.736;2023-08-12T03:38:18;11.40;;;9.48;;
79533;SDS011;68982;52.160;6.736;2023-08-12T03:40:43;12.48;;;9.23;;
79533;SDS011;68982;52.160;6.736;2023-08-12T03:43:09;14.90;;;10.05;;
79533;SDS011;68982;52.160;6.736;2023-08-12T03:45:41;11.60;;;8.70;;
79533;SDS011;68982;52.160;6.736;2023-08-12T03:48:10;12.30;;;9.23;;
79533;SDS011;68982;52.160;6.736;2023-08-12T03:50:36;14.07;;;10.02;;
79533;SDS011;68982;52.160;6.736;2023-08-12T03:53:03;12.07;;;10.10;;
79533;SDS011;68982;52.160;6.736;2023-08-12T03:55:35;12.27;;;9.45;;
79533;SDS011;68982;52.160;6.736;2023-08-12T03:58:00;12.52;;;8.95;;
79533;SDS011;68982;52.160;6.736;2023-08-12T04:00:27;15.02;;;9.30;;
79533;SDS011;68982;52.160;6.736;2023-08-12T04:02:53;11.77;;;8.52;;
79533;SDS011;68982;52.160;6.736;2023-08-12T04:05:18;13.75;;;9.10;;
79533;SDS011;68982;52.160;6.736;2023-08-12T04:07:44;14.23;;;9.18;;
79533;SDS011;68982;52.160;6.736;2023-08-12T04:10:09;12.55;;;8.50;;
79533;SDS011;68982;52.160;6.736;2023-08-12T04:12:35;12.10;;;8.82;;
79533;SDS011;68982;52.160;6.736;2023-08-12T04:15:00;13.38;;;8.70;;
79533;SDS011;68982;52.160;6.736;2023-08-12T04:17:30;11.48;;;8.48;;
79533;SDS011;68982;52.160;6.736;2023-08-12T04:19:56;13.48;;;9.52;;
79533;SDS011;68982;52.160;6.736;2023-08-12T04:22:21;11.85;;;8.82;;
79533;SDS011;68982;52.160;6.736;2023-08-12T04:24:47;14.13;;;9.35;;
79533;SDS011;68982;52.160;6.736;2023-08-12T04:27:12;12.93;;;8.52;;
79533;SDS011;68982;52.160;6.736;2023-08-12T04:29:37;11.77;;;9.15;;
79533;SDS011;68982;52.160;6.736;2023-08-12T04:32:03;15.77;;;8.90;;
79533;SDS011;68982;52.160;6.736;2023-08-12T04:34:28;17.17;;;9.50;;
79533;SDS011;68982;52.160;6.736;2023-08-12T04:36:54;14.18;;;9.20;;
79533;SDS011;68982;52.160;6.736;2023-08-12T04:39:19;14.10;;;9.75;;
79533;SDS011;68982;52.160;6.736;2023-08-12T04:41:44;16.30;;;10.57;;
79533;SDS011;68982;52.160;6.736;2023-08-12T04:44:10;14.88;;;9.77;;
79533;SDS011;68982;52.160;6.736;2023-08-12T04:46:35;13.00;;;9.07;;
79533;SDS011;68982;52.160;6.736;2023-08-12T04:49:00;13.68;;;9.38;;
79533;SDS011;68982;52.160;6.736;2023-08-12T04:51:26;13.38;;;9.13;;
79533;SDS011;68982;52.160;6.736;2023-08-12T04:53:52;19.52;;;9.43;;
79533;SDS011;68982;52.160;6.736;2023-08-12T04:56:17;14.30;;;9.95;;
79533;SDS011;68982;52.160;6.736;2023-08-12T04:58:43;13.95;;;9.27;;
79533;SDS011;68982;52.160;6.736;2023-08-12T05:01:08;16.55;;;9.55;;
79533;SDS011;68982;52.160;6.736;2023-08-12T05:03:34;14.65;;;8.98;;
79533;SDS011;68982;52.160;6.736;2023-08-12T05:05:59;13.48;;;8.93;;
79533;SDS011;68982;52.160;6.736;2023-08-12T05:08:24;15.57;;;9.00;;
79533;SDS011;68982;52.160;6.736;2023-08-12T05:10:50;15.45;;;8.40;;
79533;SDS011;68982;52.160;6.736;2023-08-12T05:13:15;12.65;;;8.70;;
79533;SDS011;68982;52.160;6.736;2023-08-12T05:15:44;17.88;;;8.75;;
79533;SDS011;68982;52.160;6.736;2023-08-12T05:18:12;11.25;;;8.73;;
79533;SDS011;68982;52.160;6.736;2023-08-12T05:20:38;11.80;;;8.35;;
79533;SDS011;68982;52.160;6.736;2023-08-12T05:23:05;10.98;;;8.35;;
79533;SDS011;68982;52.160;6.736;2023-08-12T05:25:30;15.18;;;9.98;;
79533;SDS011;68982;52.160;6.736;2023-08-12T05:27:56;14.85;;;8.75;;
79533;SDS011;68982;52.160;6.736;2023-08-12T05:30:21;12.45;;;8.73;;
79533;SDS011;68982;52.160;6.736;2023-08-12T05:32:46;14.65;;;9.43;;
79533;SDS011;68982;52.160;6.736;2023-08-12T05:35:12;11.82;;;8.23;;
79533;SDS011;68982;52.160;6.736;2023-08-12T05:37:37;15.38;;;9.20;;
79533;SDS011;68982;52.160;6.736;2023-08-12T05:40:03;16.13;;;9.25;;
79533;SDS011;68982;52.160;6.736;2023-08-12T05:42:33;15.45;;;9.48;;
79533;SDS011;68982;52.160;6.736;2023-08-12T05:44:58;13.70;;;9.52;;
79533;SDS011;68982;52.160;6.736;2023-08-12T05:47:23;15.70;;;9.50;;
79533;SDS011;68982;52.160;6.736;2023-08-12T05:49:49;13.52;;;9.30;;
79533;SDS011;68982;52.160;6.736;2023-08-12T05:52:14;15.30;;;10.38;;
79533;SDS011;68982;52.160;6.736;2023-08-12T05:54:39;16.05;;;10.55;;
79533;SDS011;68982;52.160;6.736;2023-08-12T05:57:05;14.70;;;10.38;;
79533;SDS011;68982;52.160;6.736;2023-08-12T05:59:30;15.45;;;10.05;;
79533;SDS011;68982;52.160;6.736;2023-08-12T06:01:56;18.65;;;10.70;;
79533;SDS011;68982;52.160;6.736;2023-08-12T06:04:21;17.88;;;10.18;;
79533;SDS011;68982;52.160;6.736;2023-08-12T06:06:47;15.70;;;11.00;;
79533;SDS011;68982;52.160;6.736;2023-08-12T06:09:12;17.23;;;10.70;;
79533;SDS011;68982;52.160;6.736;2023-08-12T06:11:38;18.10;;;11.52;;
79533;SDS011;68982;52.160;6.736;2023-08-12T06:14:03;18.70;;;12.88;;
79533;SDS011;68982;52.160;6.736;2023-08-12T06:16:29;21.58;;;13.25;;
79533;SDS011;68982;52.160;6.736;2023-08-12T06:18:54;22.10;;;12.60;;
79533;SDS011;68982;52.160;6.736;2023-08-12T06:21:19;18.90;;;12.55;;
79533;SDS011;68982;52.160;6.736;2023-08-12T06:23:45;19.53;;;13.30;;
79533;SDS011;68982;52.160;6.736;2023-08-12T06:26:10;19.77;;;12.95;;
79533;SDS011;68982;52.160;6.736;2023-08-12T06:28:36;20.45;;;13.13;;
79533;SDS011;68982;52.160;6.736;2023-08-12T06:31:01;21.37;;;13.27;;
79533;SDS011;68982;52.160;6.736;2023-08-12T06:33:26;23.02;;;14.30;;
79533;SDS011;68982;52.160;6.736;2023-08-12T06:35:52;22.23;;;14.40;;
79533;SDS011;68982;52.160;6.736;2023-08-12T06:38:17;25.00;;;14.60;;
79533;SDS011;68982;52.160;6.736;2023-08-12T06:40:42;26.13;;;15.05;;
79533;SDS011;68982;52.160;6.736;2023-08-12T06:43:08;22.92;;;14.75;;
79533;SDS011;68982;52.160;6.736;2023-08-12T06:45:34;26.88;;;14.30;;
79533;SDS011;68982;52.160;6.736;2023-08-12T06:48:00;21.05;;;14.07;;
79533;SDS011;68982;52.160;6.736;2023-08-12T06:52:52;26.60;;;14.48;;
79533;SDS011;68982;52.160;6.736;2023-08-12T06:55:17;25.45;;;15.65;;
79533;SDS011;68982;52.160;6.736;2023-08-12T06:57:43;24.63;;;15.90;;
79533;SDS011;68982;52.160;6.736;2023-08-12T07:00:08;22.92;;;15.02;;
79533;SDS011;68982;52.160;6.736;2023-08-12T07:02:34;23.30;;;15.23;;
79533;SDS011;68982;52.160;6.736;2023-08-12T07:04:59;19.73;;;13.85;;
79533;SDS011;68982;52.160;6.736;2023-08-12T07:07:25;22.60;;;14.27;;
79533;SDS011;68982;52.160;6.736;2023-08-12T07:09:50;24.73;;;15.75;;
79533;SDS011;68982;52.160;6.736;2023-08-12T07:12:16;25.07;;;15.53;;
79533;SDS011;68982;52.160;6.736;2023-08-12T07:14:41;23.02;;;15.38;;
79533;SDS011;68982;52.160;6.736;2023-08-12T07:17:06;21.00;;;15.57;;
79533;SDS011;68982;52.160;6.736;2023-08-12T07:19:32;22.92;;;15.82;;
79533;SDS011;68982;52.160;6.736;2023-08-12T07:21:57;22.63;;;15.30;;
79533;SDS011;68982;52.160;6.736;2023-08-12T07:24:23;24.67;;;16.48;;
79533;SDS011;68982;52.160;6.736;2023-08-12T07:26:48;23.23;;;15.73;;
79533;SDS011;68982;52.160;6.736;2023-08-12T07:29:13;24.80;;;15.55;;
79533;SDS011;68982;52.160;6.736;2023-08-12T07:31:39;27.08;;;16.15;;
79533;SDS011;68982;52.160;6.736;2023-08-12T07:34:04;26.10;;;15.55;;
79533;SDS011;68982;52.160;6.736;2023-08-12T07:36:30;21.08;;;14.55;;
79533;SDS011;68982;52.160;6.736;2023-08-12T07:38:56;26.60;;;16.73;;
79533;SDS011;68982;52.160;6.736;2023-08-12T07:41:21;23.58;;;15.07;;
79533;SDS011;68982;52.160;6.736;2023-08-12T07:43:46;21.85;;;13.80;;
79533;SDS011;68982;52.160;6.736;2023-08-12T07:46:12;21.98;;;13.70;;
79533;SDS011;68982;52.160;6.736;2023-08-12T07:48:37;26.05;;;15.73;;
79533;SDS011;68982;52.160;6.736;2023-08-12T07:51:03;21.38;;;14.07;;
79533;SDS011;68982;52.160;6.736;2023-08-12T07:53:28;18.52;;;13.57;;
79533;SDS011;68982;52.160;6.736;2023-08-12T07:55:54;17.42;;;13.07;;
79533;SDS011;68982;52.160;6.736;2023-08-12T07:58:19;17.05;;;12.68;;
79533;SDS011;68982;52.160;6.736;2023-08-12T08:00:44;18.63;;;13.15;;
79533;SDS011;68982;52.160;6.736;2023-08-12T08:03:10;19.10;;;12.73;;
79533;SDS011;68982;52.160;6.736;2023-08-12T08:05:35;19.23;;;14.32;;
79533;SDS011;68982;52.160;6.736;2023-08-12T08:08:00;17.30;;;11.52;;
79533;SDS011;68982;52.160;6.736;2023-08-12T08:10:26;18.13;;;12.88;;
79533;SDS011;68982;52.160;6.736;2023-08-12T08:12:51;16.50;;;11.90;;
79533;SDS011;68982;52.160;6.736;2023-08-12T08:15:16;14.95;;;11.15;;
79533;SDS011;68982;52.160;6.736;2023-08-12T08:17:42;17.60;;;11.55;;
79533;SDS011;68982;52.160;6.736;2023-08-12T08:20:07;14.27;;;10.93;;
79533;SDS011;68982;52.160;6.736;2023-08-12T08:22:35;14.00;;;10.27;;
79533;SDS011;68982;52.160;6.736;2023-08-12T08:25:00;13.65;;;9.70;;
79533;SDS011;68982;52.160;6.736;2023-08-12T08:27:26;10.55;;;9.02;;
79533;SDS011;68982;52.160;6.736;2023-08-12T08:29:51;12.53;;;8.93;;
79533;SDS011;68982;52.160;6.736;2023-08-12T08:32:16;12.63;;;9.65;;
79533;SDS011;68982;52.160;6.736;2023-08-12T08:34:43;9.40;;;7.70;;
79533;SDS011;68982;52.160;6.736;2023-08-12T08:37:08;13.77;;;8.57;;
79533;SDS011;68982;52.160;6.736;2023-08-12T08:39:33;9.48;;;7.95;;
79533;SDS011;68982;52.160;6.736;2023-08-12T08:41:59;10.40;;;8.05;;
79533;SDS011;68982;52.160;6.736;2023-08-12T08:44:26;10.15;;;7.65;;
79533;SDS011;68982;52.160;6.736;2023-08-12T08:46:55;8.77;;;7.18;;
79533;SDS011;68982;52.160;6.736;2023-08-12T08:49:24;10.50;;;8.77;;
79533;SDS011;68982;52.160;6.736;2023-08-12T08:51:50;11.95;;;8.35;;
79533;SDS011;68982;52.160;6.736;2023-08-12T08:54:17;11.38;;;7.85;;
79533;SDS011;68982;52.160;6.736;2023-08-12T08:56:44;9.68;;;8.30;;
79533;SDS011;68982;52.160;6.736;2023-08-12T08:59:10;12.95;;;8.60;;
79533;SDS011;68982;52.160;6.736;2023-08-12T09:01:35;10.43;;;8.00;;
79533;SDS011;68982;52.160;6.736;2023-08-12T09:04:02;10.13;;;8.20;;
79533;SDS011;68982;52.160;6.736;2023-08-12T09:06:28;11.63;;;8.02;;
79533;SDS011;68982;52.160;6.736;2023-08-12T09:08:55;8.75;;;7.78;;
79533;SDS011;68982;52.160;6.736;2023-08-12T09:11:21;10.57;;;7.97;;
79533;SDS011;68982;52.160;6.736;2023-08-12T09:13:47;8.15;;;6.88;;
79533;SDS011;68982;52.160;6.736;2023-08-12T09:16:13;7.80;;;7.00;;
79533;SDS011;68982;52.160;6.736;2023-08-12T09:18:40;8.38;;;6.82;;
79533;SDS011;68982;52.160;6.736;2023-08-12T09:21:08;7.70;;;6.65;;
79533;SDS011;68982;52.160;6.736;2023-08-12T09:23:35;6.28;;;5.68;;
79533;SDS011;68982;52.160;6.736;2023-08-12T09:26:02;6.32;;;5.40;;
79533;SDS011;68982;52.160;6.736;2023-08-12T09:28:29;6.72;;;6.03;;
79533;SDS011;68982;52.160;6.736;2023-08-12T09:30:54;6.10;;;4.95;;
79533;SDS011;68982;52.160;6.736;2023-08-12T09:33:25;5.57;;;5.03;;
79533;SDS011;68982;52.160;6.736;2023-08-12T09:35:54;5.93;;;4.82;;
79533;SDS011;68982;52.160;6.736;2023-08-12T09:38:21;5.13;;;4.63;;
79533;SDS011;68982;52.160;6.736;2023-08-12T09:40:47;5.15;;;4.43;;
79533;SDS011;68982;52.160;6.736;2023-08-12T09:43:13;5.47;;;4.10;;
79533;SDS011;68982;52.160;6.736;2023-08-12T09:45:38;5.18;;;4.13;;
79533;SDS011;68982;52.160;6.736;2023-08-12T09:48:04;4.78;;;3.58;;
79533;SDS011;68982;52.160;6.736;2023-08-12T09:50:29;3.95;;;3.55;;
79533;SDS011;68982;52.160;6.736;2023-08-12T09:52:55;4.65;;;3.40;;
79533;SDS011;68982;52.160;6.736;2023-08-12T09:55:23;2.90;;;2.60;;
79533;SDS011;68982;52.160;6.736;2023-08-12T09:57:53;4.43;;;3.30;;
79533;SDS011;68982;52.160;6.736;2023-08-12T10:00:20;4.57;;;2.80;;
79533;SDS011;68982;52.160;6.736;2023-08-12T10:02:47;2.97;;;2.63;;
79533;SDS011;68982;52.160;6.736;2023-08-12T10:05:16;2.60;;;2.40;;
79533;SDS011;68982;52.160;6.736;2023-08-12T10:07:46;3.42;;;2.45;;
79533;SDS011;68982;52.160;6.736;2023-08-12T10:10:12;3.40;;;2.70;;
79533;SDS011;68982;52.160;6.736;2023-08-12T10:12:39;3.20;;;2.35;;
79533;SDS011;68982;52.160;6.736;2023-08-12T10:15:06;3.00;;;2.33;;
79533;SDS011;68982;52.160;6.736;2023-08-12T10:17:33;6.55;;;2.40;;
79533;SDS011;68982;52.160;6.736;2023-08-12T10:20:00;3.58;;;2.60;;
79533;SDS011;68982;52.160;6.736;2023-08-12T10:22:28;3.33;;;2.58;;
79533;SDS011;68982;52.160;6.736;2023-08-12T10:24:55;3.80;;;3.30;;
79533;SDS011;68982;52.160;6.736;2023-08-12T10:27:23;4.88;;;3.65;;
79533;SDS011;68982;52.160;6.736;2023-08-12T10:29:50;3.30;;;2.88;;
79533;SDS011;68982;52.160;6.736;2023-08-12T10:32:15;3.90;;;3.22;;
79533;SDS011;68982;52.160;6.736;2023-08-12T10:34:41;3.80;;;3.40;;
79533;SDS011;68982;52.160;6.736;2023-08-12T10:37:08;4.13;;;3.33;;
79533;SDS011;68982;52.160;6.736;2023-08-12T10:39:35;3.80;;;3.40;;
79533;SDS011;68982;52.160;6.736;2023-08-12T10:42:01;5.28;;;3.50;;
79533;SDS011;68982;52.160;6.736;2023-08-12T10:45:13;4.03;;;3.60;;
79533;SDS011;68982;52.160;6.736;2023-08-12T10:47:16;5.00;;;3.63;;
79533;SDS011;68982;52.160;6.736;2023-08-12T10:49:42;4.10;;;3.70;;
79533;SDS011;68982;52.160;6.736;2023-08-12T10:52:29;4.30;;;3.45;;
79533;SDS011;68982;52.160;6.736;2023-08-12T10:55:15;3.90;;;3.40;;
79533;SDS011;68982;52.160;6.736;2023-08-12T11:00:10;5.30;;;4.20;;
79533;SDS011;68982;52.160;6.736;2023-08-12T11:02:38;5.07;;;4.57;;
79533;SDS011;68982;52.160;6.736;2023-08-12T11:05:09;5.10;;;4.60;;
79533;SDS011;68982;52.160;6.736;2023-08-12T11:10:27;2.97;;;2.58;;
79533;SDS011;68982;52.160;6.736;2023-08-12T11:15:17;3.63;;;2.33;;
79533;SDS011;68982;52.160;6.736;2023-08-12T11:17:53;2.53;;;2.22;;
79533;SDS011;68982;52.160;6.736;2023-08-12T11:20:19;3.78;;;2.30;;
79533;SDS011;68982;52.160;6.736;2023-08-12T11:22:45;3.00;;;2.50;;
79533;SDS011;68982;52.160;6.736;2023-08-12T11:25:12;2.90;;;2.25;;
79533;SDS011;68982;52.160;6.736;2023-08-12T11:27:43;2.00;;;1.65;;
79533;SDS011;68982;52.160;6.736;2023-08-12T11:30:17;2.85;;;2.55;;
79533;SDS011;68982;52.160;6.736;2023-08-12T11:32:46;2.50;;;1.90;;
79533;SDS011;68982;52.160;6.736;2023-08-12T11:35:13;2.30;;;1.90;;
79533;SDS011;68982;52.160;6.736;2023-08-12T11:37:40;2.10;;;1.90;;
79533;SDS011;68982;52.160;6.736;2023-08-12T11:40:08;2.55;;;1.50;;
79533;SDS011;68982;52.160;6.736;2023-08-12T11:42:35;1.85;;;1.70;;
79533;SDS011;68982;52.160;6.736;2023-08-12T11:47:28;2.28;;;1.00;;
79533;SDS011;68982;52.160;6.736;2023-08-12T11:49:53;1.45;;;1.30;;
79533;SDS011;68982;52.160;6.736;2023-08-12T11:52:19;2.78;;;0.80;;
79533;SDS011;68982;52.160;6.736;2023-08-12T11:54:45;2.13;;;1.15;;
79533;SDS011;68982;52.160;6.736;2023-08-12T11:57:10;1.45;;;0.90;;
79533;SDS011;68982;52.160;6.736;2023-08-12T11:59:36;1.20;;;0.98;;
79533;SDS011;68982;52.160;6.736;2023-08-12T12:02:02;1.30;;;0.90;;
79533;SDS011;68982;52.160;6.736;2023-08-12T12:04:32;0.73;;;0.65;;
79533;SDS011;68982;52.160;6.736;2023-08-12T12:06:58;1.08;;;0.90;;
79533;SDS011;68982;52.160;6.736;2023-08-12T12:09:24;1.30;;;1.05;;
79533;SDS011;68982;52.160;6.736;2023-08-12T12:11:54;1.60;;;0.88;;
79533;SDS011;68982;52.160;6.736;2023-08-12T12:14:20;1.75;;;1.65;;
79533;SDS011;68982;52.160;6.736;2023-08-12T12:16:46;1.40;;;1.10;;
79533;SDS011;68982;52.160;6.736;2023-08-12T12:21:46;3.00;;;2.05;;
79533;SDS011;68982;52.160;6.736;2023-08-12T12:24:20;3.17;;;1.70;;
79533;SDS011;68982;52.160;6.736;2023-08-12T12:26:46;2.03;;;1.83;;
79533;SDS011;68982;52.160;6.736;2023-08-12T12:29:12;2.83;;;1.80;;
79533;SDS011;68982;52.160;6.736;2023-08-12T12:31:38;3.10;;;1.65;;
79533;SDS011;68982;52.160;6.736;2023-08-12T12:34:05;1.92;;;1.35;;
79533;SDS011;68982;52.160;6.736;2023-08-12T12:36:34;2.28;;;1.88;;
79533;SDS011;68982;52.160;6.736;2023-08-12T12:39:01;1.83;;;1.48;;
79533;SDS011;68982;52.160;6.736;2023-08-12T12:41:27;2.45;;;1.90;;
79533;SDS011;68982;52.160;6.736;2023-08-12T12:43:52;3.70;;;1.60;;
79533;SDS011;68982;52.160;6.736;2023-08-12T12:46:18;1.60;;;1.08;;
79533;SDS011;68982;52.160;6.736;2023-08-12T12:48:43;2.05;;;1.20;;
79533;SDS011;68982;52.160;6.736;2023-08-12T12:51:10;2.10;;;1.58;;
79533;SDS011;68982;52.160;6.736;2023-08-12T12:53:35;1.80;;;1.50;;
79533;SDS011;68982;52.160;6.736;2023-08-12T12:56:01;1.30;;;0.90;;
79533;SDS011;68982;52.160;6.736;2023-08-12T12:58:33;2.17;;;1.00;;
79533;SDS011;68982;52.160;6.736;2023-08-12T13:00:59;2.40;;;0.90;;
79533;SDS011;68982;52.160;6.736;2023-08-12T13:03:25;1.98;;;1.00;;
79533;SDS011;68982;52.160;6.736;2023-08-12T13:05:51;2.15;;;1.15;;
79533;SDS011;68982;52.160;6.736;2023-08-12T13:08:20;3.55;;;1.42;;
79533;SDS011;68982;52.160;6.736;2023-08-12T13:10:45;2.35;;;1.05;;
79533;SDS011;68982;52.160;6.736;2023-08-12T13:13:12;1.80;;;1.10;;
79533;SDS011;68982;52.160;6.736;2023-08-12T13:15:40;2.10;;;1.02;;
79533;SDS011;68982;52.160;6.736;2023-08-12T13:18:06;1.98;;;1.10;;
79533;SDS011;68982;52.160;6.736;2023-08-12T13:20:32;3.53;;;1.02;;
79533;SDS011;68982;52.160;6.736;2023-08-12T13:22:57;2.70;;;1.00;;
79533;SDS011;68982;52.160;6.736;2023-08-12T13:25:22;2.17;;;1.50;;
79533;SDS011;68982;52.160;6.736;2023-08-12T13:27:48;1.83;;;1.02;;
79533;SDS011;68982;52.160;6.736;2023-08-12T13:30:13;2.28;;;0.93;;
79533;SDS011;68982;52.160;6.736;2023-08-12T13:32:38;3.38;;;0.90;;
79533;SDS011;68982;52.160;6.736;2023-08-12T13:35:04;3.17;;;1.02;;
79533;SDS011;68982;52.160;6.736;2023-08-12T13:37:30;2.78;;;1.40;;
79533;SDS011;68982;52.160;6.736;2023-08-12T13:39:57;1.98;;;1.20;;
79533;SDS011;68982;52.160;6.736;2023-08-12T13:42:22;3.47;;;1.15;;
79533;SDS011;68982;52.160;6.736;2023-08-12T13:44:47;4.90;;;1.67;;
79533;SDS011;68982;52.160;6.736;2023-08-12T13:47:13;2.20;;;1.45;;
79533;SDS011;68982;52.160;6.736;2023-08-12T13:49:38;3.05;;;1.20;;
79533;SDS011;68982;52.160;6.736;2023-08-12T13:52:04;4.93;;;1.40;;
79533;SDS011;68982;52.160;6.736;2023-08-12T13:54:29;3.65;;;1.30;;
79533;SDS011;68982;52.160;6.736;2023-08-12T13:56:54;2.42;;;1.30;;
79533;SDS011;68982;52.160;6.736;2023-08-12T13:59:20;3.92;;;1.30;;
79533;SDS011;68982;52.160;6.736;2023-08-12T14:01:45;3.30;;;1.48;;
79533;SDS011;68982;52.160;6.736;2023-08-12T14:04:11;3.70;;;1.27;;
79533;SDS011;68982;52.160;6.736;2023-08-12T14:06:36;4.82;;;1.80;;
79533;SDS011;68982;52.160;6.736;2023-08-12T14:09:01;3.78;;;1.73;;
79533;SDS011;68982;52.160;6.736;2023-08-12T14:11:27;4.88;;;1.30;;
79533;SDS011;68982;52.160;6.736;2023-08-12T14:13:52;4.18;;;1.30;;
79533;SDS011;68982;52.160;6.736;2023-08-12T14:16:18;6.22;;;1.40;;
79533;SDS011;68982;52.160;6.736;2023-08-12T14:18:43;8.57;;;1.75;;
79533;SDS011;68982;52.160;6.736;2023-08-12T14:21:08;4.53;;;1.67;;
79533;SDS011;68982;52.160;6.736;2023-08-12T14:23:34;4.63;;;1.40;;
79533;SDS011;68982;52.160;6.736;2023-08-12T14:25:59;4.97;;;2.08;;
79533;SDS011;68982;52.160;6.736;2023-08-12T14:28:24;4.10;;;1.40;;
79533;SDS011;68982;52.160;6.736;2023-08-12T14:30:50;4.38;;;1.90;;
79533;SDS011;68982;52.160;6.736;2023-08-12T14:33:15;3.78;;;1.73;;
79533;SDS011;68982;52.160;6.736;2023-08-12T14:35:40;3.05;;;1.52;;
79533;SDS011;68982;52.160;6.736;2023-08-12T14:38:06;6.47;;;1.47;;
79533;SDS011;68982;52.160;6.736;2023-08-12T14:40:31;5.68;;;1.52;;
79533;SDS011;68982;52.160;6.736;2023-08-12T14:42:56;5.70;;;1.95;;
79533;SDS011;68982;52.160;6.736;2023-08-12T14:45:22;2.70;;;1.30;;
79533;SDS011;68982;52.160;6.736;2023-08-12T14:47:47;4.65;;;1.90;;